Aviation Digital Data Service (ADDS)

Output produced by TAFs form (0803 UTC 20 October 2014)
found at http://aviationweather.gov/adds/tafs/
 
KEGE 200520Z 2006/2106 15003KT P6SM FEW110 
     FM202000 24007KT P6SM VCSH SCT080 
     FM210000 17005KT P6SM FEW250 AMD LTD TO CLD VIS AND WIND TIL 201300